createdAt,value
2022-09-28T00:00:42.879Z,61.22
2022-09-28T00:01:43.023Z,61.22
2022-09-28T00:02:43.030Z,61.22
2022-09-28T00:03:42.844Z,61.22
2022-09-28T00:04:42.833Z,61.22
2022-09-28T00:05:42.820Z,61.13
2022-09-28T00:06:42.837Z,61.13
2022-09-28T00:07:42.802Z,61.22
2022-09-28T00:08:42.787Z,61.22
2022-09-28T00:09:42.780Z,61.22
2022-09-28T00:10:42.764Z,61.13
2022-09-28T00:11:42.779Z,61.13
2022-09-28T00:12:42.747Z,61.13
2022-09-28T00:13:42.731Z,61.13
2022-09-28T00:14:42.723Z,61.13
2022-09-28T00:15:42.732Z,61.13
2022-09-28T00:16:42.768Z,61.13
2022-09-28T00:17:42.687Z,61.13
2022-09-28T00:18:42.676Z,61.13
2022-09-28T00:19:42.666Z,61.13
2022-09-28T00:20:42.654Z,61.13
2022-09-28T00:21:42.670Z,61.13
2022-09-28T00:22:42.632Z,61.13
2022-09-28T00:23:42.622Z,61.13
2022-09-28T00:24:42.610Z,61.13
2022-09-28T00:25:42.598Z,61.13
2022-09-28T00:26:42.622Z,61.13
2022-09-28T00:27:42.576Z,61.13
2022-09-28T00:28:42.566Z,61.13
2022-09-28T00:29:42.555Z,61.13
2022-09-28T00:30:42.542Z,61.13
2022-09-28T00:31:42.603Z,61.13
2022-09-28T00:32:42.552Z,61.13
2022-09-28T00:33:42.509Z,61.13
2022-09-28T00:34:42.527Z,61.13
2022-09-28T00:35:42.487Z,61.02
2022-09-28T00:36:42.480Z,61.02
2022-09-28T00:37:42.492Z,61.02
2022-09-28T00:38:42.459Z,61.02
2022-09-28T00:39:42.445Z,61.02
2022-09-28T00:40:42.540Z,61.02
2022-09-28T00:41:42.421Z,61.02
2022-09-28T00:42:42.437Z,61.02
2022-09-28T00:43:42.400Z,61.02
2022-09-28T00:44:42.391Z,61.02
2022-09-28T00:45:42.472Z,61.02
2022-09-28T00:46:42.371Z,61.02
2022-09-28T00:47:42.408Z,61.02
2022-09-28T00:48:42.347Z,61.02
2022-09-28T00:49:42.335Z,61.02
2022-09-28T00:50:42.325Z,60.93
2022-09-28T00:51:42.313Z,61.02
2022-09-28T00:52:42.335Z,60.93
2022-09-28T00:53:42.291Z,60.93
2022-09-28T00:54:42.281Z,60.93
2022-09-28T00:55:42.268Z,60.93
2022-09-28T00:56:42.259Z,60.93
2022-09-28T00:57:42.245Z,60.93
2022-09-28T00:58:42.261Z,60.93
2022-09-28T00:59:42.223Z,60.93
2022-09-28T01:00:42.246Z,60.93
2022-09-28T01:01:42.228Z,60.93
2022-09-28T01:02:42.191Z,60.93
2022-09-28T01:03:42.229Z,60.93
2022-09-28T01:04:42.171Z,60.93
2022-09-28T01:05:42.159Z,60.93
2022-09-28T01:06:42.146Z,60.93
2022-09-28T01:07:42.135Z,60.93
2022-09-28T01:08:42.155Z,60.93
2022-09-28T01:09:42.112Z,60.93
2022-09-28T01:10:42.105Z,60.93
2022-09-28T01:11:42.093Z,60.82
2022-09-28T01:12:42.079Z,60.82
2022-09-28T01:13:42.094Z,60.82
2022-09-28T01:14:42.058Z,60.82
2022-09-28T01:15:42.045Z,60.82
2022-09-28T01:16:42.092Z,60.82
2022-09-28T01:17:42.024Z,60.82
2022-09-28T01:18:42.039Z,60.82
2022-09-28T01:19:42.027Z,60.82
2022-09-28T01:20:41.994Z,60.82
2022-09-28T01:21:41.980Z,60.82
2022-09-28T01:22:41.971Z,60.82
2022-09-28T01:23:41.990Z,60.82
2022-09-28T01:24:41.947Z,60.82
2022-09-28T01:25:41.937Z,60.82
2022-09-28T01:26:41.934Z,60.82
2022-09-28T01:27:41.914Z,60.82
2022-09-28T01:28:41.907Z,60.82
2022-09-28T01:29:41.916Z,60.82
2022-09-28T01:30:41.881Z,60.82
2022-09-28T01:31:41.978Z,60.82
2022-09-28T01:32:41.859Z,60.72
2022-09-28T01:33:41.849Z,60.72
2022-09-28T01:34:41.863Z,60.82
2022-09-28T01:35:41.849Z,60.72
2022-09-28T01:36:41.815Z,60.72
2022-09-28T01:37:41.804Z,60.72
2022-09-28T01:38:41.791Z,60.72
2022-09-28T01:39:41.807Z,60.72
2022-09-28T01:40:41.844Z,60.72
2022-09-28T01:41:41.757Z,60.72
2022-09-28T01:42:41.747Z,60.72
2022-09-28T01:43:41.736Z,60.72
2022-09-28T01:44:41.751Z,60.72
2022-09-28T01:45:41.744Z,60.72
2022-09-28T01:46:41.704Z,60.72
2022-09-28T01:47:41.691Z,60.72
2022-09-28T01:48:41.682Z,60.72
2022-09-28T01:49:41.695Z,60.72
2022-09-28T01:50:41.660Z,60.72
2022-09-28T01:51:41.671Z,60.72
2022-09-28T01:52:41.635Z,60.82
2022-09-28T01:53:41.624Z,60.72
2022-09-28T01:54:41.642Z,60.72
2022-09-28T01:55:41.601Z,60.72
2022-09-28T01:56:41.593Z,60.72
2022-09-28T01:57:41.581Z,60.72
2022-09-28T01:58:41.570Z,60.72
2022-09-28T01:59:41.584Z,60.72
2022-09-28T02:00:41.647Z,60.72
2022-09-28T02:01:41.605Z,60.72
2022-09-28T02:02:41.526Z,60.72
2022-09-28T02:03:41.514Z,60.72
2022-09-28T02:04:41.538Z,60.72
2022-09-28T02:05:41.495Z,60.72
2022-09-28T02:06:41.494Z,60.72
2022-09-28T02:07:41.494Z,60.72
2022-09-28T02:08:41.465Z,60.72
2022-09-28T02:09:41.450Z,60.72
2022-09-28T02:10:41.468Z,60.72
2022-09-28T02:11:41.427Z,60.72
2022-09-28T02:12:41.417Z,60.62
2022-09-28T02:13:41.406Z,60.72
2022-09-28T02:14:41.406Z,60.72
2022-09-28T02:15:41.412Z,60.72
2022-09-28T02:16:41.486Z,60.62
2022-09-28T02:17:41.362Z,60.62
2022-09-28T02:18:41.354Z,60.62
2022-09-28T02:19:41.342Z,60.62
2022-09-28T02:20:41.360Z,60.62
2022-09-28T02:21:41.321Z,60.62
2022-09-28T02:22:41.311Z,60.62
2022-09-28T02:23:41.324Z,60.62
2022-09-28T02:24:41.290Z,60.62
2022-09-28T02:25:41.304Z,60.62
2022-09-28T02:26:41.265Z,60.62
2022-09-28T02:27:41.254Z,60.62
2022-09-28T02:28:41.246Z,60.62
2022-09-28T02:29:41.231Z,60.62
2022-09-28T02:30:41.248Z,60.62
2022-09-28T02:31:41.323Z,60.62
2022-09-28T02:32:41.200Z,60.62
2022-09-28T02:33:41.185Z,60.62
2022-09-28T02:34:41.179Z,60.62
2022-09-28T02:35:41.191Z,60.62
2022-09-28T02:36:41.154Z,60.62
2022-09-28T02:37:41.144Z,60.62
2022-09-28T02:38:41.137Z,60.62
2022-09-28T02:39:41.144Z,60.62
2022-09-28T02:40:41.169Z,60.62
2022-09-28T02:41:41.099Z,60.62
2022-09-28T02:42:41.091Z,60.62
2022-09-28T02:43:41.083Z,60.62
2022-09-28T02:44:41.067Z,60.62
2022-09-28T02:45:41.148Z,60.62
2022-09-28T02:46:41.044Z,60.62
2022-09-28T02:47:41.032Z,60.62
2022-09-28T02:48:44.139Z,60.52
2022-09-28T02:49:41.009Z,60.52
2022-09-28T02:50:41.001Z,60.52
2022-09-28T02:51:41.014Z,60.52
2022-09-28T02:52:40.975Z,60.62
2022-09-28T02:53:40.964Z,60.52
2022-09-28T02:54:40.953Z,60.52
2022-09-28T02:55:40.972Z,60.52
2022-09-28T02:56:40.957Z,60.52
2022-09-28T02:57:40.920Z,60.52
2022-09-28T02:58:40.909Z,60.52
2022-09-28T02:59:40.898Z,60.52
2022-09-28T03:00:40.925Z,60.52
2022-09-28T03:01:40.941Z,60.52
2022-09-28T03:02:40.864Z,60.52
2022-09-28T03:03:40.854Z,60.52
2022-09-28T03:04:40.842Z,60.52
2022-09-28T03:05:40.833Z,60.52
2022-09-28T03:06:40.848Z,60.52
2022-09-28T03:07:40.811Z,60.52
2022-09-28T03:08:40.797Z,60.52
2022-09-28T03:09:40.788Z,60.52
2022-09-28T03:10:40.776Z,60.52
2022-09-28T03:11:40.815Z,60.52
2022-09-28T03:12:40.758Z,60.52
2022-09-28T03:13:40.745Z,60.52
2022-09-28T03:14:40.731Z,60.52
2022-09-28T03:15:41.954Z,60.52
2022-09-28T03:16:40.803Z,60.52
2022-09-28T03:17:40.718Z,60.42
2022-09-28T03:18:40.687Z,60.42
2022-09-28T03:19:40.683Z,60.42
2022-09-28T03:20:40.665Z,60.42
2022-09-28T03:21:40.679Z,60.42
2022-09-28T03:22:40.648Z,60.42
2022-09-28T03:23:40.631Z,60.42
2022-09-28T03:24:40.622Z,60.42
2022-09-28T03:25:40.609Z,60.42
2022-09-28T03:26:40.624Z,60.42
2022-09-28T03:27:40.613Z,60.42
2022-09-28T03:28:40.579Z,60.42
2022-09-28T03:29:40.569Z,60.42
2022-09-28T03:30:40.552Z,60.42
2022-09-28T03:31:40.622Z,60.42
2022-09-28T03:32:40.533Z,60.42
2022-09-28T03:33:40.524Z,60.42
2022-09-28T03:34:40.510Z,60.42
2022-09-28T03:35:40.501Z,60.32
2022-09-28T03:36:40.512Z,60.32
2022-09-28T03:37:40.477Z,60.32
2022-09-28T03:38:40.465Z,60.32
2022-09-28T03:39:40.463Z,60.32
2022-09-28T03:40:40.514Z,60.32
2022-09-28T03:41:40.469Z,60.32
2022-09-28T03:42:40.424Z,60.32
2022-09-28T03:43:40.443Z,60.32
2022-09-28T03:44:40.402Z,60.32
2022-09-28T03:45:40.448Z,60.32
2022-09-28T03:46:40.384Z,60.32
2022-09-28T03:47:40.398Z,60.32
2022-09-28T03:48:40.361Z,60.22
2022-09-28T03:49:40.351Z,60.22
2022-09-28T03:50:40.336Z,60.22
2022-09-28T03:51:40.327Z,60.22
2022-09-28T03:52:40.338Z,60.22
2022-09-28T03:53:40.310Z,60.22
2022-09-28T03:54:40.294Z,60.22
2022-09-28T03:55:40.281Z,60.22
2022-09-28T03:56:40.268Z,60.22
2022-09-28T03:57:40.283Z,60.22
2022-09-28T03:58:40.247Z,60.22
2022-09-28T03:59:40.261Z,60.22
2022-09-28T04:00:40.278Z,60.22
2022-09-28T04:01:40.372Z,60.22
2022-09-28T04:02:40.202Z,60.22
2022-09-28T04:03:40.192Z,60.22
2022-09-28T04:04:40.180Z,60.22
2022-09-28T04:05:40.177Z,60.22
2022-09-28T04:06:40.182Z,60.22
2022-09-28T04:07:40.147Z,60.22
2022-09-28T04:08:40.138Z,60.12
2022-09-28T04:09:40.130Z,60.12
2022-09-28T04:10:40.114Z,60.12
2022-09-28T04:11:59.775Z,60.12
2022-09-28T04:12:41.090Z,60.12
2022-09-28T04:13:40.081Z,60.12
2022-09-28T04:14:40.068Z,60.12
2022-09-28T04:15:40.083Z,60.12
2022-09-28T04:16:40.166Z,60.12
2022-09-28T04:17:40.390Z,60.12
2022-09-28T04:18:40.027Z,60.12
2022-09-28T04:19:40.020Z,60.12
2022-09-28T04:20:40.001Z,60.12
2022-09-28T04:21:39.993Z,60.12
2022-09-28T04:22:40.006Z,60.12
2022-09-28T04:23:39.977Z,60.12
2022-09-28T04:24:39.959Z,60.12
2022-09-28T04:25:39.947Z,60.12
2022-09-28T04:26:39.937Z,60.12
2022-09-28T04:27:39.952Z,60.12
2022-09-28T04:28:39.918Z,60.12
2022-09-28T04:29:39.907Z,60.12
2022-09-28T04:30:39.891Z,60.12
2022-09-28T04:31:40.005Z,60.12
2022-09-28T04:32:39.907Z,60.12
2022-09-28T04:33:39.862Z,60.12
2022-09-28T04:34:43.922Z,60.12
2022-09-28T04:35:39.839Z,60.12
2022-09-28T04:36:39.825Z,60.12
2022-09-28T04:37:39.854Z,60.12
2022-09-28T04:38:52.829Z,60.12
2022-09-28T04:39:43.115Z,60.12
2022-09-28T04:40:40.860Z,60.12
2022-09-28T04:41:39.769Z,60.12
2022-09-28T04:42:39.760Z,60.12
2022-09-28T04:43:39.774Z,60.12
2022-09-28T04:44:39.736Z,60.12
2022-09-28T04:45:39.738Z,60.12
2022-09-28T04:46:39.714Z,60.12
2022-09-28T04:47:39.727Z,60.12
2022-09-28T04:48:39.733Z,60.12
2022-09-28T04:49:39.683Z,60.12
2022-09-28T04:50:39.670Z,60.12
2022-09-28T04:51:39.660Z,60.12
2022-09-28T04:52:39.648Z,60.12
2022-09-28T04:53:39.638Z,60.12
2022-09-28T04:54:39.651Z,60.12
2022-09-28T04:55:39.617Z,60.12
2022-09-28T04:56:39.602Z,60.12
2022-09-28T04:57:39.593Z,60.12
2022-09-28T04:58:39.581Z,60.12
2022-09-28T04:59:39.602Z,60.12
2022-09-28T05:00:39.558Z,60.12
2022-09-28T05:01:39.674Z,60.12
2022-09-28T05:02:39.684Z,60.12
2022-09-28T05:03:39.561Z,60.12
2022-09-28T05:04:39.542Z,60.12
2022-09-28T05:05:39.504Z,60.12
2022-09-28T05:06:39.493Z,60.12
2022-09-28T05:07:39.494Z,60.12
2022-09-28T05:08:39.473Z,60.12
2022-09-28T05:09:39.493Z,60.12
2022-09-28T05:10:39.449Z,60.12
2022-09-28T05:11:39.438Z,60.12
2022-09-28T05:12:39.426Z,60.12
2022-09-28T05:13:39.417Z,60.12
2022-09-28T05:14:39.428Z,60.12
2022-09-28T05:15:39.394Z,60.12
2022-09-28T05:16:39.441Z,60.12
2022-09-28T05:17:39.371Z,60.12
2022-09-28T05:18:39.360Z,60.12
2022-09-28T05:19:39.412Z,60.12
2022-09-28T05:20:39.339Z,60.12
2022-09-28T05:21:39.331Z,60.12
2022-09-28T05:22:39.315Z,60.12
2022-09-28T05:23:39.307Z,60.12
2022-09-28T05:24:39.293Z,60.12
2022-09-28T05:25:39.311Z,60.12
2022-09-28T05:26:39.271Z,60.12
2022-09-28T05:27:39.263Z,60.12
2022-09-28T05:28:39.255Z,60.12
2022-09-28T05:29:39.240Z,60.12
2022-09-28T05:30:39.267Z,60.12
2022-09-28T05:31:39.257Z,60.12
2022-09-28T05:32:39.207Z,60.12
2022-09-28T05:33:39.199Z,60.12
2022-09-28T05:34:39.184Z,60.02
2022-09-28T05:35:39.200Z,60.12
2022-09-28T05:36:39.204Z,60.12
2022-09-28T05:37:39.158Z,60.02
2022-09-28T05:38:39.141Z,60.12
2022-09-28T05:39:39.131Z,60.02
2022-09-28T05:40:39.236Z,60.02
2022-09-28T05:41:39.134Z,60.12
2022-09-28T05:42:39.095Z,60.12
2022-09-28T05:43:39.086Z,60.12
2022-09-28T05:44:39.073Z,60.12
2022-09-28T05:45:39.115Z,60.02
2022-09-28T05:46:39.076Z,60.02
2022-09-28T05:47:39.040Z,60.02
2022-09-28T05:48:39.030Z,60.12
2022-09-28T05:49:39.018Z,60.02
2022-09-28T05:50:39.007Z,60.02
2022-09-28T05:51:39.024Z,60.02
2022-09-28T05:52:39.013Z,60.02
2022-09-28T05:53:38.979Z,60.02
2022-09-28T05:54:38.964Z,60.02
2022-09-28T05:55:38.955Z,60.12
2022-09-28T05:56:38.943Z,60.02
2022-09-28T05:57:38.972Z,60.02
2022-09-28T05:58:38.920Z,60.12
2022-09-28T05:59:38.910Z,60.12
2022-09-28T06:00:38.900Z,60.02
2022-09-28T06:01:38.996Z,60.02
2022-09-28T06:02:38.932Z,60.02
2022-09-28T06:03:38.894Z,60.02
2022-09-28T06:04:38.856Z,60.02
2022-09-28T06:05:38.849Z,60.02
2022-09-28T06:06:38.842Z,60.02
2022-09-28T06:07:38.849Z,60.02
2022-09-28T06:08:38.839Z,60.02
2022-09-28T06:09:38.802Z,60.02
2022-09-28T06:10:38.792Z,60.02
2022-09-28T06:11:38.782Z,60.02
2022-09-28T06:12:38.769Z,60.02
2022-09-28T06:13:38.783Z,60.02
2022-09-28T06:14:38.747Z,60.02
2022-09-28T06:15:38.734Z,60.02
2022-09-28T06:16:43.613Z,60.02
2022-09-28T06:17:39.713Z,60.02
2022-09-28T06:18:38.727Z,60.02
2022-09-28T06:19:38.690Z,60.02
2022-09-28T06:20:38.682Z,60.02
2022-09-28T06:21:38.669Z,60.02
2022-09-28T06:22:38.658Z,60.02
2022-09-28T06:23:40.496Z,60.02
2022-09-28T06:24:38.640Z,60.02
2022-09-28T06:25:38.624Z,60.02
2022-09-28T06:26:38.616Z,60.02
2022-09-28T06:27:38.604Z,60.02
2022-09-28T06:28:38.639Z,60.02
2022-09-28T06:29:38.583Z,60.02
2022-09-28T06:30:38.726Z,60.02
2022-09-28T06:31:38.558Z,60.02
2022-09-28T06:32:38.548Z,60.02
2022-09-28T06:33:38.537Z,60.02
2022-09-28T06:34:38.551Z,60.02
2022-09-28T06:35:38.516Z,60.02
2022-09-28T06:36:38.503Z,60.02
2022-09-28T06:37:38.492Z,60.02
2022-09-28T06:38:38.485Z,59.92
2022-09-28T06:39:38.519Z,59.92
2022-09-28T06:40:38.532Z,59.92
2022-09-28T06:41:38.449Z,59.82
2022-09-28T06:42:38.444Z,59.82
2022-09-28T06:43:38.427Z,59.82
2022-09-28T06:44:38.443Z,59.92
2022-09-28T06:45:38.406Z,59.92
2022-09-28T06:46:38.504Z,59.92
2022-09-28T06:47:38.387Z,59.92
2022-09-28T06:48:38.375Z,59.92
2022-09-28T06:49:38.404Z,59.92
2022-09-28T06:50:38.354Z,59.92
2022-09-28T06:51:38.405Z,59.92
2022-09-28T06:52:38.331Z,59.92
2022-09-28T06:53:38.321Z,59.92
2022-09-28T06:54:38.309Z,59.92
2022-09-28T06:55:38.346Z,59.92
2022-09-28T06:56:38.291Z,59.92
2022-09-28T06:57:38.280Z,59.92
2022-09-28T06:58:38.266Z,59.92
2022-09-28T06:59:38.254Z,59.92
2022-09-28T07:00:38.268Z,60.02
2022-09-28T07:01:38.300Z,60.02
2022-09-28T07:02:38.263Z,60.02
2022-09-28T07:03:38.210Z,60.02
2022-09-28T07:04:38.202Z,60.02
2022-09-28T07:05:38.216Z,60.02
2022-09-28T07:06:38.179Z,60.02
2022-09-28T07:07:38.170Z,60.02
2022-09-28T07:08:38.157Z,60.02
2022-09-28T07:09:42.707Z,60.02
2022-09-28T07:10:39.160Z,60.02
2022-09-28T07:11:38.174Z,60.02
2022-09-28T07:12:38.113Z,60.02
2022-09-28T07:13:53.442Z,60.02
2022-09-28T07:14:47.289Z,60.02
2022-09-28T07:15:39.117Z,60.02
2022-09-28T07:17:03.780Z,60.12
2022-09-28T07:17:52.568Z,60.12
2022-09-28T07:18:39.069Z,60.12
2022-09-28T07:19:38.041Z,60.12
2022-09-28T07:20:51.156Z,60.12
2022-09-28T07:21:39.040Z,60.12
2022-09-28T07:22:43.330Z,60.12
2022-09-28T07:23:49.664Z,60.12
2022-09-28T07:24:38.978Z,60.12
2022-09-28T07:25:37.998Z,60.12
2022-09-28T07:26:37.983Z,60.12
2022-09-28T07:27:37.976Z,60.12
2022-09-28T07:28:37.948Z,60.22
2022-09-28T07:29:37.929Z,60.12
2022-09-28T07:30:37.984Z,60.12
2022-09-28T07:31:37.930Z,60.22
2022-09-28T07:32:37.892Z,60.22
2022-09-28T07:33:37.885Z,60.22
2022-09-28T07:34:37.870Z,60.22
2022-09-28T07:35:37.862Z,60.12
2022-09-28T07:36:37.873Z,60.22
2022-09-28T07:37:37.840Z,60.22
2022-09-28T07:38:37.827Z,60.22
2022-09-28T07:39:37.829Z,60.02
2022-09-28T07:40:37.849Z,59.92
2022-09-28T07:41:37.821Z,60.02
2022-09-28T07:42:37.781Z,60.02
2022-09-28T07:43:37.847Z,60.12
2022-09-28T07:44:37.761Z,60.12
2022-09-28T07:45:37.788Z,60.32
2022-09-28T07:46:37.792Z,60.32
2022-09-28T07:47:37.727Z,60.32
2022-09-28T07:48:37.717Z,60.32
2022-09-28T07:49:37.705Z,60.32
2022-09-28T07:50:37.697Z,60.32
2022-09-28T07:51:37.709Z,60.32
2022-09-28T07:52:37.671Z,60.22
2022-09-28T07:53:37.662Z,60.12
2022-09-28T07:54:37.647Z,60.52
2022-09-28T07:55:37.639Z,60.82
2022-09-28T07:56:37.629Z,61.02
2022-09-28T07:57:37.641Z,61.22
2022-09-28T07:58:37.603Z,61.13
2022-09-28T07:59:37.617Z,61.02
2022-09-28T08:00:37.582Z,61.63
2022-09-28T08:01:37.629Z,61.63
2022-09-28T08:02:37.677Z,61.43
2022-09-28T08:03:37.548Z,61.33
2022-09-28T08:04:37.538Z,61.43
2022-09-28T08:05:37.528Z,61.72
2022-09-28T08:06:37.522Z,61.93
2022-09-28T08:07:37.549Z,62.33
2022-09-28T08:08:37.492Z,61.93
2022-09-28T08:09:37.482Z,62.53
2022-09-28T08:10:37.593Z,61.83
2022-09-28T08:11:37.462Z,61.52
2022-09-28T08:12:37.478Z,62.13
2022-09-28T08:13:37.441Z,62.33
2022-09-28T08:14:37.428Z,61.72
2022-09-28T08:15:37.444Z,61.63
2022-09-28T08:17:37.418Z,61.83
2022-09-28T08:18:37.385Z,61.40
2022-09-28T08:19:37.371Z,61.80
2022-09-28T08:20:37.362Z,61.90
2022-09-28T08:21:37.351Z,61.60
2022-09-28T08:22:37.377Z,61.50
2022-09-28T08:23:37.335Z,61.30
2022-09-28T08:24:37.319Z,61.40
2022-09-28T08:25:37.308Z,61.19
2022-09-28T08:26:37.296Z,61.40
2022-09-28T08:27:37.286Z,61.50
2022-09-28T08:28:37.299Z,61.60
2022-09-28T08:29:37.271Z,61.50
2022-09-28T08:30:37.323Z,61.60
2022-09-28T08:31:37.265Z,61.40
2022-09-28T08:32:37.228Z,61.50
2022-09-28T08:33:37.245Z,61.50
2022-09-28T08:34:37.207Z,61.30
2022-09-28T08:35:37.199Z,61.40
2022-09-28T08:36:37.186Z,61.30
2022-09-28T08:37:37.175Z,61.10
2022-09-28T08:38:37.189Z,61.19
2022-09-28T08:39:37.156Z,61.00
2022-09-28T08:40:37.205Z,61.30
2022-09-28T08:41:37.138Z,61.60
2022-09-28T08:42:37.118Z,61.40
2022-09-28T08:43:37.132Z,61.40
2022-09-28T08:44:37.163Z,61.30
2022-09-28T08:45:37.177Z,61.50
2022-09-28T08:46:37.134Z,61.30
2022-09-28T08:47:37.088Z,61.00
2022-09-28T08:48:37.077Z,61.40
2022-09-28T08:49:37.242Z,61.40
2022-09-28T08:50:37.030Z,61.19
2022-09-28T08:51:37.021Z,61.10
2022-09-28T08:52:37.007Z,61.00
2022-09-28T08:53:37.035Z,61.19
2022-09-28T08:54:36.987Z,61.10
2022-09-28T08:55:36.974Z,61.00
2022-09-28T08:56:36.962Z,61.00
2022-09-28T08:57:36.952Z,61.00
2022-09-28T08:58:36.942Z,61.00
2022-09-28T08:59:36.957Z,61.00
2022-09-28T09:00:36.916Z,60.89
2022-09-28T09:01:36.975Z,60.89
2022-09-28T09:02:36.938Z,61.00
2022-09-28T09:03:36.907Z,60.89
2022-09-28T09:04:36.897Z,60.80
2022-09-28T09:05:36.863Z,60.80
2022-09-28T09:06:36.850Z,60.60
2022-09-28T09:07:36.841Z,60.49
2022-09-28T09:08:36.828Z,60.49
2022-09-28T09:09:36.845Z,60.39
2022-09-28T09:10:36.807Z,60.39
2022-09-28T09:11:36.801Z,60.29
2022-09-28T09:12:36.796Z,60.29
2022-09-28T09:13:36.777Z,60.29
2022-09-28T09:14:36.801Z,60.39
2022-09-28T09:15:36.753Z,60.39
2022-09-28T09:16:36.812Z,60.49
2022-09-28T09:17:36.730Z,60.49
2022-09-28T09:18:36.718Z,60.49
2022-09-28T09:19:36.845Z,60.49
2022-09-28T09:20:36.720Z,60.60
2022-09-28T09:21:36.690Z,60.60
2022-09-28T09:22:36.674Z,60.60
2022-09-28T09:23:36.666Z,60.60
2022-09-28T09:24:36.657Z,60.60
2022-09-28T09:25:38.603Z,60.60
2022-09-28T09:26:36.633Z,60.60
2022-09-28T09:27:36.621Z,60.60
2022-09-28T09:28:36.608Z,60.69
2022-09-28T09:29:36.600Z,60.60
2022-09-28T09:30:36.645Z,60.69
2022-09-28T09:31:36.575Z,60.69
2022-09-28T09:32:36.565Z,60.69
2022-09-28T09:33:36.579Z,60.69
2022-09-28T09:34:36.541Z,60.69
2022-09-28T09:35:36.593Z,60.69
2022-09-28T09:36:36.521Z,60.69
2022-09-28T09:37:36.510Z,60.69
2022-09-28T09:38:36.497Z,60.69
2022-09-28T09:39:36.488Z,60.69
2022-09-28T09:40:36.545Z,60.69
2022-09-28T09:41:36.497Z,60.72
2022-09-28T09:42:36.455Z,60.69
2022-09-28T09:43:36.442Z,60.60
2022-09-28T09:44:36.430Z,60.62
2022-09-28T09:45:36.481Z,60.62
2022-09-28T09:46:36.449Z,60.62
2022-09-28T09:47:36.405Z,60.62
2022-09-28T09:48:36.389Z,60.60
2022-09-28T09:49:36.377Z,60.69
2022-09-28T09:50:36.369Z,60.82
2022-09-28T09:51:36.380Z,60.89
2022-09-28T09:52:37.864Z,60.89
2022-09-28T09:53:38.437Z,60.93
2022-09-28T09:54:36.321Z,60.93
2022-09-28T09:55:36.311Z,60.89
2022-09-28T09:56:36.299Z,61.30
2022-09-28T09:57:36.315Z,61.10
2022-09-28T09:58:36.289Z,61.40
2022-09-28T09:59:36.271Z,61.40
2022-09-28T10:00:36.257Z,61.30
2022-09-28T10:01:36.303Z,61.19
2022-09-28T10:02:36.323Z,61.19
2022-09-28T10:03:36.223Z,61.10
2022-09-28T10:04:36.211Z,60.89
2022-09-28T10:05:36.211Z,60.80
2022-09-28T10:06:36.194Z,60.69
2022-09-28T10:07:38.509Z,60.80
2022-09-28T10:08:37.192Z,60.69
2022-09-28T10:09:36.169Z,60.69
2022-09-28T10:10:36.145Z,60.69
2022-09-28T10:11:36.136Z,60.69
2022-09-28T10:12:36.125Z,60.82
2022-09-28T10:13:36.142Z,60.80
2022-09-28T10:14:36.103Z,60.69
2022-09-28T10:15:36.091Z,60.62
2022-09-28T10:16:36.155Z,60.80
2022-09-28T10:17:36.071Z,60.89
2022-09-28T10:18:36.083Z,60.80
2022-09-28T10:19:36.048Z,60.80
2022-09-28T10:20:36.034Z,60.80
2022-09-28T10:21:36.026Z,60.72
2022-09-28T10:22:36.013Z,60.69
2022-09-28T10:23:36.137Z,60.80
2022-09-28T10:24:35.991Z,60.80
2022-09-28T10:25:35.982Z,60.80
2022-09-28T10:26:35.970Z,60.69
2022-09-28T10:27:35.960Z,60.72
2022-09-28T10:28:35.986Z,60.60
2022-09-28T10:29:35.938Z,60.60
2022-09-28T10:30:35.976Z,60.49
2022-09-28T10:31:35.915Z,60.49
2022-09-28T10:32:35.903Z,60.60
2022-09-28T10:33:35.894Z,60.49
2022-09-28T10:34:35.904Z,60.60
2022-09-28T10:35:35.870Z,60.60
2022-09-28T10:36:35.858Z,60.80
2022-09-28T10:37:35.850Z,60.89
2022-09-28T10:38:35.846Z,60.80
2022-09-28T10:39:35.892Z,60.80
2022-09-28T10:40:35.852Z,60.80
2022-09-28T10:41:35.806Z,60.80
2022-09-28T10:42:35.791Z,60.80
2022-09-28T10:43:35.784Z,60.69
2022-09-28T10:44:35.798Z,60.69
2022-09-28T10:45:35.773Z,60.69
2022-09-28T10:46:35.748Z,60.60
2022-09-28T10:47:35.738Z,60.49
2022-09-28T10:48:35.730Z,60.29
2022-09-28T10:49:35.755Z,60.29
2022-09-28T10:50:35.703Z,60.29
2022-09-28T10:51:35.696Z,60.29
2022-09-28T10:52:35.683Z,60.39
2022-09-28T10:53:35.672Z,60.49
2022-09-28T10:54:35.659Z,60.49
2022-09-28T10:55:35.702Z,60.49
2022-09-28T10:56:35.635Z,60.49
2022-09-28T10:57:35.633Z,60.39
2022-09-28T10:58:35.615Z,60.39
2022-09-28T10:59:35.605Z,60.39
2022-09-28T11:00:35.615Z,60.39
2022-09-28T11:01:35.609Z,60.39
2022-09-28T11:02:36.400Z,60.29
2022-09-28T11:03:35.561Z,60.29
2022-09-28T11:04:35.549Z,60.29
2022-09-28T11:05:35.594Z,60.19
2022-09-28T11:06:35.525Z,60.19
2022-09-28T11:07:35.514Z,60.19
2022-09-28T11:08:35.503Z,60.19
2022-09-28T11:09:35.500Z,60.19
2022-09-28T11:10:35.523Z,60.19
2022-09-28T11:11:35.497Z,60.19
2022-09-28T11:12:35.459Z,60.19
2022-09-28T11:13:35.452Z,60.29
2022-09-28T11:14:39.752Z,60.39
2022-09-28T11:15:36.470Z,60.39
2022-09-28T11:16:35.455Z,60.39
2022-09-28T11:17:35.406Z,60.42
2022-09-28T11:18:35.392Z,60.49
2022-09-28T11:19:35.382Z,60.42
2022-09-28T11:20:35.369Z,60.39
2022-09-28T11:21:35.386Z,60.42
2022-09-28T11:22:35.348Z,60.39
2022-09-28T11:23:35.340Z,60.39
2022-09-28T11:24:35.326Z,60.42
2022-09-28T11:25:35.318Z,60.52
2022-09-28T11:26:35.345Z,60.62
2022-09-28T11:27:35.329Z,60.62
2022-09-28T11:28:35.283Z,60.52
2022-09-28T11:29:35.272Z,60.49
2022-09-28T11:30:35.317Z,60.39
2022-09-28T11:31:35.251Z,60.32
2022-09-28T11:32:35.265Z,60.29
2022-09-28T11:33:35.226Z,60.19
2022-09-28T11:34:57.497Z,60.39
2022-09-28T11:35:36.203Z,60.42
2022-09-28T11:36:35.194Z,60.52
2022-09-28T11:37:35.206Z,60.62
2022-09-28T11:38:35.176Z,60.69
2022-09-28T11:39:35.160Z,60.69
2022-09-28T11:40:35.212Z,60.69
2022-09-28T11:41:35.138Z,60.60
2022-09-28T11:42:35.151Z,60.62
2022-09-28T11:43:35.140Z,60.62
2022-09-28T11:44:35.103Z,60.62
2022-09-28T11:45:35.094Z,60.52
2022-09-28T11:46:35.154Z,60.52
2022-09-28T11:47:35.097Z,60.60
2022-09-28T11:48:35.060Z,60.52
2022-09-28T11:49:35.053Z,60.52
2022-09-28T11:50:35.043Z,60.42
2022-09-28T11:51:35.029Z,60.42
2022-09-28T11:52:35.044Z,60.42
2022-09-28T11:53:35.005Z,60.42
2022-09-28T11:54:34.997Z,60.42
2022-09-28T11:55:34.984Z,60.42
2022-09-28T11:56:34.973Z,60.42
2022-09-28T11:57:34.986Z,60.42
2022-09-28T11:58:34.952Z,60.42
2022-09-28T11:59:34.962Z,60.32
2022-09-28T12:00:34.929Z,60.32
2022-09-28T12:01:34.916Z,60.32
2022-09-28T12:02:35.066Z,60.42
2022-09-28T12:03:35.059Z,60.52
2022-09-28T12:04:34.885Z,60.52
2022-09-28T12:05:34.870Z,60.52
2022-09-28T12:06:34.861Z,60.52
2022-09-28T12:07:34.874Z,60.52
2022-09-28T12:08:34.838Z,60.52
2022-09-28T12:09:34.825Z,60.52
2022-09-28T12:10:34.813Z,60.52
2022-09-28T12:11:34.804Z,60.52
2022-09-28T12:12:34.832Z,60.52
2022-09-28T12:13:34.781Z,60.52
2022-09-28T12:14:34.769Z,60.52
2022-09-28T12:15:47.204Z,60.52
2022-09-28T12:17:04.063Z,60.52
2022-09-28T12:17:35.860Z,60.52
2022-09-28T12:18:34.733Z,60.52
2022-09-28T12:19:34.717Z,60.52
2022-09-28T12:20:34.710Z,60.52
2022-09-28T12:21:34.697Z,60.52
2022-09-28T12:22:34.685Z,60.52
2022-09-28T12:23:34.701Z,60.42
2022-09-28T12:24:34.663Z,60.42
2022-09-28T12:25:34.650Z,60.42
2022-09-28T12:26:37.356Z,60.42
2022-09-28T12:27:34.648Z,60.52
2022-09-28T12:28:34.643Z,60.52
2022-09-28T12:29:34.608Z,60.42
2022-09-28T12:30:34.664Z,60.42
2022-09-28T12:31:34.610Z,60.42
2022-09-28T12:32:34.573Z,60.42
2022-09-28T12:33:34.588Z,60.42
2022-09-28T12:34:34.550Z,60.52
2022-09-28T12:35:34.547Z,60.52
2022-09-28T12:36:34.527Z,60.52
2022-09-28T12:37:34.517Z,60.52
2022-09-28T12:38:34.532Z,60.52
2022-09-28T12:39:53.500Z,60.52
2022-09-28T12:40:35.546Z,60.52
2022-09-28T12:41:34.478Z,60.52
2022-09-28T12:42:34.462Z,60.52
2022-09-28T12:43:34.478Z,60.52
2022-09-28T12:44:34.440Z,60.52
2022-09-28T12:45:42.995Z,60.52
2022-09-28T12:46:35.453Z,60.52
2022-09-28T12:47:34.432Z,60.52
2022-09-28T12:48:34.435Z,60.52
2022-09-28T12:50:33.342Z,60.52
2022-09-28T12:50:40.286Z,60.52
2022-09-28T12:51:35.363Z,60.62
2022-09-28T12:52:34.401Z,60.52
2022-09-28T12:53:34.344Z,60.52